Airfield :
LOGIN :

Register | Disclaimer

   EN    FR    IT 

 










Legend :    VFR   Marginal VFR   IFR   Intensive IFR   Very Intensive IFR
Visi :
Ceiling :
>= 8 km
>= 3000ft
5 to 8 km
1000 to 3000 ft
1500m to 5 km
500 to 1000 ft
800 to 1500m
200 to 500 ft
< 800m
< 200 ft
Symbols :   Thunderstorms  Fog  Heavy snow  Heavy precipitations  Wind > 20 kt
SIGMETs :     Misc.  Thunderstorms  Icing  Turbulence  Mountain Waves  Volcanic Ashes






- Airport Elevation : 327 ft
- IATA code : BHX


EGBB - Birmingham

CURRENT METAR :
  • 200350Z 20010KT 170V240 9999 OVC007 11/10 Q0988

EXPIRED METARs :
  • 200320Z 20009KT 170V230 9999 -RA BKN007 OVC018 11/10 Q0988
  • 200250Z 19010KT 170V230 9999 -RA BKN007 OVC030 11/10 Q0988 RERA
  • 200220Z 20011KT 7000 RA BKN008 OVC025 11/10 Q0989 RERA
  • 200150Z 20013KT 3900 +RA BKN008 OVC026 11/10 Q0989
  • 200120Z 20012G24KT 4000 +RA OVC009 11/10 Q0989

TAF TAF EGBB
Valid from the 20 at 00:00 until the 21 at 00:00 UTC


192255Z 2000/2024 22015G28KT 9999 BKN015
TEMPO 2000/2024 6000 RA BKN010
PROB40
TEMPO 2000/2024 4000 +RA BKN006
BECMG 2019/2022 29010KT
ATIS : +44 121 780 0910



MET'MAP, your aeronautical weather chart ! - Copyright ORBIFLY December 2007 - Disclaimer

ORBIFLY MET'MAP TEAM :

Programming & Development : Alexandra Zaïnal
Concept & original design : Baudouin d'Aumeries
Assistance for programming : Marc-Olivier Méhu
Technical & hardware support : Manuel Goepfert

Contact : metmap@orbifly.com




SOURCES & CREDITS :

   NOAA